Starksboro, Vermont
Current Conditions -  °F | °C
As of 7:54 PM on Saturday 25 Oct 2014 (Local Time) from KBTV Reporting Station
Light Rain Light Rain  
Wind Chill: 52°   Ceiling: 4900
Heat Index: 52°   Visibility: 6mi
Dew Point: 48°   Wind: 8mph
Humidity: 86%   Direction: 150°SSE
Pressure: 29.48"   Gusts: NA
Location:  44.23°N, 73.06°W
Report Text: KBTV 252354Z 15007KT 6SM -RA BR FEW037 SCT044 OVC049 11/09 A2948 RMK AO2 SLP987 P0011 60016 T01110089 10150 20111 56019
Loading
Personal Weather Stations






























Interactive Weather Map
Tropical Storm Tracking
New forecast layout! Learn more

10-Day Weather Forecast

Advertisements
Track Severe Weather on mobile